首页
METAR-TAF:

METAR-TAF

机场 :

Chièvres, 比利时

纬度: 50-34N, 经度: 003-50E, 海拔: 60米

当前天气观测

该预报发布于43分钟前的09:25 UTC
风速5节,风向西转西北
温度 17°C
湿度 88%
气压 1015 hPa
能见度10公里或以上

METAR: EBCV 190925Z AUTO 30005KT 9999 OVC009/// 17/15 Q1015 GRN

时间: 12:08 (10:08 UTC)

预报

该预报发布于1小时和27分钟前的08:41 UTC
预报有效从19日的 10点(UTC)到 19日的 19点(UTC)
风速8节,风向南转西南
能见度10公里或以上
少量云层高于2000英尺
散云层高于3500英尺
几率 40% :
短暂存在
从 19日的 18点(UTC)到 19日的 19点(UTC)
风速15节,风向多变,有时为30节阵风
能見度: 5000
散云层高于3500英尺, 塔状积云.
阵雨
几率 30% :
短暂存在
从 19日的 18点(UTC)到 19日的 19点(UTC)
风速20节,风向多变,有时为35节阵风
能見度: 3000
多云层高于3000英尺, 积雨云.
雷暴, 雨

TAF: EBCV 190841Z 1910/1919 20008KT 9999 FEW020 SCT035 PROB40 TEMPO 1918/1919 VRB15G30KT 5000 SHRA SCT035TCU PROB30 TEMPO 1918/1919 VRB20G35KT 3000 TSRA BKN030CB BY EBWM

超过4000个机场的气象观测和天气预报(METAR&TAF报告)。

可查询的气象台以黄色和红色小点在地图上表示。

将鼠标移到小点上方,可查看气象台名称。

然后点击查看天气观测和预报。

如需切换地图:点击带黑十字的绿色按钮放大地图;点击带横线的绿色按钮缩小地图;或者点击绿色箭头查看邻近地区的地图。


METAR-TAF: